SAS104 EDDN-EDDP
Flight info
| Callsign | SAS104 |
|---|---|
| Flight time | 0h 29m |
| Altitude | 19000 |
| Route | ERETO1G ERETO DCT TABAT T952 GOXLI |
| Aircraft | B77W/H-SDE1E2E3FGHIJ2J3J4J5M1RWXY/LB1D1 |
Departure
| Time | 2026-05-07 18:49 |
|---|---|
| Airport | Nuremberg Airport (EDDN) |
Arrival
| Time | 2026-05-07 19:19 |
|---|---|
| Airport | Leipzig/Halle Airport (EDDP) |
| Time | Latitude | Longitude | Altitude | Speed | Heading |
|---|---|---|---|---|---|
| 2026-05-07 18:36 | 49.49537 | 11.08552 | 1038 ft | 0 kts | 10° |
| 2026-05-07 18:46 | 49.49538 | 11.08553 | 1038 ft | 1 kts | 10° |
| 2026-05-07 18:46 | 49.49551 | 11.08556 | 1039 ft | 3 kts | 10° |
| 2026-05-07 18:46 | 49.49582 | 11.08568 | 1040 ft | 6 kts | 24° |
| 2026-05-07 18:47 | 49.49595 | 11.08626 | 1041 ft | 7 kts | 91° |
| 2026-05-07 18:47 | 49.49586 | 11.08741 | 1042 ft | 18 kts | 99° |
| 2026-05-07 18:47 | 49.49556 | 11.09030 | 1044 ft | 30 kts | 98° |
| 2026-05-07 18:47 | 49.49531 | 11.09305 | 1049 ft | 22 kts | 90° |
| 2026-05-07 18:48 | 49.49601 | 11.09514 | 1055 ft | 22 kts | 52° |
| 2026-05-07 18:48 | 49.49691 | 11.09563 | 1057 ft | 12 kts | 317° |
| 2026-05-07 18:48 | 49.49710 | 11.09434 | 1055 ft | 13 kts | 278° |
| 2026-05-07 18:48 | 49.49726 | 11.09264 | 1052 ft | 25 kts | 278° |
| 2026-05-07 18:49 | 49.49788 | 11.08643 | 1044 ft | 98 kts | 278° |
| 2026-05-07 18:49 | 49.49925 | 11.07226 | 1029 ft | 166 kts | 277° |
| 2026-05-07 18:49 | 49.50104 | 11.05310 | 1403 ft | 185 kts | 280° |
| 2026-05-07 18:49 | 49.50299 | 11.03342 | 2174 ft | 189 kts | 280° |
| 2026-05-07 18:50 | 49.50491 | 11.01331 | 2808 ft | 191 kts | 281° |
| 2026-05-07 18:50 | 49.50683 | 10.99286 | 3397 ft | 194 kts | 280° |
| 2026-05-07 18:50 | 49.50873 | 10.97232 | 4057 ft | 192 kts | 280° |
| 2026-05-07 18:50 | 49.51165 | 10.95208 | 4496 ft | 202 kts | 297° |
| 2026-05-07 18:51 | 49.52152 | 10.93556 | 4695 ft | 222 kts | 324° |
| 2026-05-07 18:51 | 49.53570 | 10.92375 | 5027 ft | 241 kts | 342° |
| 2026-05-07 18:51 | 49.55293 | 10.92270 | 5408 ft | 257 kts | 3° |
| 2026-05-07 18:51 | 49.57105 | 10.92501 | 6038 ft | 265 kts | 0° |
| 2026-05-07 18:52 | 49.58966 | 10.92605 | 6763 ft | 269 kts | 359° |
| 2026-05-07 18:52 | 49.60846 | 10.92675 | 7534 ft | 270 kts | 360° |
| 2026-05-07 18:52 | 49.62713 | 10.93198 | 8166 ft | 279 kts | 16° |
| 2026-05-07 18:52 | 49.64535 | 10.94294 | 8910 ft | 283 kts | 20° |
| 2026-05-07 18:53 | 49.66347 | 10.95518 | 9702 ft | 285 kts | 21° |
| 2026-05-07 18:53 | 49.68172 | 10.96760 | 10415 ft | 290 kts | 21° |
| 2026-05-07 18:53 | 49.70082 | 10.98039 | 10718 ft | 311 kts | 21° |
| 2026-05-07 18:53 | 49.72154 | 10.99402 | 10920 ft | 336 kts | 21° |
| 2026-05-07 18:54 | 49.74386 | 11.00851 | 11128 ft | 360 kts | 21° |
| 2026-05-07 18:54 | 49.76744 | 11.02368 | 11729 ft | 372 kts | 20° |
| 2026-05-07 18:54 | 49.79135 | 11.03894 | 12519 ft | 380 kts | 20° |
| 2026-05-07 18:54 | 49.81601 | 11.05463 | 13456 ft | 385 kts | 20° |
| 2026-05-07 18:55 | 49.84099 | 11.07047 | 14340 ft | 390 kts | 20° |
| 2026-05-07 18:55 | 49.86627 | 11.08649 | 15181 ft | 395 kts | 20° |
| 2026-05-07 18:55 | 49.89190 | 11.10273 | 16038 ft | 400 kts | 20° |
| 2026-05-07 18:55 | 49.91777 | 11.11913 | 16891 ft | 404 kts | 20° |
| 2026-05-07 18:56 | 49.94396 | 11.13574 | 17729 ft | 409 kts | 20° |
| 2026-05-07 18:56 | 49.97052 | 11.15260 | 18511 ft | 415 kts | 20° |
| 2026-05-07 18:56 | 49.99737 | 11.16968 | 19055 ft | 420 kts | 20° |
| 2026-05-07 18:56 | 50.02457 | 11.18699 | 19057 ft | 425 kts | 21° |
| 2026-05-07 18:57 | 50.05233 | 11.20468 | 19077 ft | 436 kts | 21° |
| 2026-05-07 18:57 | 50.08054 | 11.22268 | 19069 ft | 440 kts | 21° |
| 2026-05-07 18:57 | 50.10889 | 11.24080 | 19072 ft | 439 kts | 21° |
| 2026-05-07 18:57 | 50.13704 | 11.25884 | 19066 ft | 437 kts | 21° |
| 2026-05-07 18:58 | 50.16513 | 11.27684 | 19064 ft | 435 kts | 21° |
| 2026-05-07 18:58 | 50.19314 | 11.29482 | 19065 ft | 434 kts | 21° |
| 2026-05-07 18:58 | 50.22103 | 11.31273 | 19057 ft | 434 kts | 21° |
| 2026-05-07 18:58 | 50.24876 | 11.33056 | 19062 ft | 433 kts | 21° |
| 2026-05-07 18:59 | 50.27660 | 11.34849 | 19066 ft | 433 kts | 21° |
| 2026-05-07 18:59 | 50.30449 | 11.36647 | 19066 ft | 434 kts | 21° |
| 2026-05-07 18:59 | 50.33241 | 11.38449 | 19078 ft | 434 kts | 21° |
| 2026-05-07 18:59 | 50.36033 | 11.40253 | 19074 ft | 435 kts | 21° |
| 2026-05-07 19:00 | 50.38835 | 11.42067 | 19063 ft | 436 kts | 21° |
| 2026-05-07 19:00 | 50.41638 | 11.43885 | 19071 ft | 436 kts | 21° |
| 2026-05-07 19:00 | 50.44441 | 11.45703 | 19073 ft | 436 kts | 21° |
| 2026-05-07 19:00 | 50.47241 | 11.47522 | 19073 ft | 436 kts | 21° |
| 2026-05-07 19:01 | 50.50045 | 11.49346 | 19079 ft | 436 kts | 21° |
| 2026-05-07 19:01 | 50.52857 | 11.51122 | 19077 ft | 433 kts | 18° |
| 2026-05-07 19:01 | 50.55693 | 11.52393 | 19068 ft | 416 kts | 11° |
| 2026-05-07 19:01 | 50.58496 | 11.53153 | 19067 ft | 400 kts | 6° |
| 2026-05-07 19:02 | 50.60306 | 11.53402 | 19062 ft | 389 kts | 1° |
| 2026-05-07 19:02 | 50.62950 | 11.53524 | 19065 ft | 372 kts | 0° |
| 2026-05-07 19:02 | 50.66291 | 11.53660 | 19061 ft | 353 kts | 0° |
| 2026-05-07 19:02 | 50.68696 | 11.53761 | 19064 ft | 338 kts | 0° |
| 2026-05-07 19:03 | 50.70258 | 11.53829 | 19062 ft | 328 kts | 0° |
| 2026-05-07 19:03 | 50.72488 | 11.53929 | 19061 ft | 313 kts | 0° |
| 2026-05-07 19:03 | 50.74600 | 11.54026 | 18949 ft | 304 kts | 0° |
| 2026-05-07 19:03 | 50.76701 | 11.54124 | 18624 ft | 302 kts | 0° |
| 2026-05-07 19:04 | 50.78799 | 11.54222 | 18243 ft | 301 kts | 0° |
| 2026-05-07 19:04 | 50.80888 | 11.54321 | 17838 ft | 300 kts | 0° |
| 2026-05-07 19:04 | 50.82968 | 11.54420 | 17420 ft | 299 kts | 0° |
| 2026-05-07 19:04 | 50.85062 | 11.54521 | 16931 ft | 301 kts | 0° |
| 2026-05-07 19:05 | 50.87168 | 11.54623 | 16431 ft | 304 kts | 0° |
| 2026-05-07 19:05 | 50.89295 | 11.54726 | 15949 ft | 307 kts | 1° |
| 2026-05-07 19:05 | 50.91432 | 11.54831 | 15519 ft | 307 kts | 1° |
| 2026-05-07 19:05 | 50.93566 | 11.54935 | 15176 ft | 305 kts | 1° |
| 2026-05-07 19:06 | 50.95683 | 11.55039 | 14861 ft | 303 kts | 1° |
| 2026-05-07 19:06 | 50.99875 | 11.55244 | 14172 ft | 300 kts | 1° |
| 2026-05-07 19:06 | 51.01953 | 11.55346 | 13884 ft | 297 kts | 1° |
| 2026-05-07 19:07 | 51.04013 | 11.55447 | 13534 ft | 295 kts | 1° |
| 2026-05-07 19:07 | 51.06047 | 11.55628 | 13128 ft | 292 kts | 9° |
| 2026-05-07 19:07 | 51.07932 | 11.56842 | 12605 ft | 297 kts | 35° |
| 2026-05-07 19:07 | 51.09312 | 11.59264 | 12219 ft | 298 kts | 57° |
| 2026-05-07 19:08 | 51.10300 | 11.62148 | 11880 ft | 297 kts | 62° |
| 2026-05-07 19:08 | 51.11211 | 11.65094 | 11533 ft | 296 kts | 62° |
| 2026-05-07 19:08 | 51.12104 | 11.68031 | 11189 ft | 295 kts | 62° |
| 2026-05-07 19:08 | 51.12990 | 11.70961 | 10844 ft | 291 kts | 62° |
| 2026-05-07 19:09 | 51.13857 | 11.73840 | 10289 ft | 287 kts | 62° |
| 2026-05-07 19:09 | 51.14720 | 11.76713 | 9622 ft | 288 kts | 62° |
| 2026-05-07 19:09 | 51.15580 | 11.79577 | 9010 ft | 285 kts | 62° |
| 2026-05-07 19:09 | 51.16417 | 11.82376 | 8412 ft | 281 kts | 63° |
| 2026-05-07 19:10 | 51.17254 | 11.85177 | 7812 ft | 279 kts | 63° |
| 2026-05-07 19:10 | 51.18183 | 11.87862 | 7223 ft | 274 kts | 48° |
| 2026-05-07 19:10 | 51.19652 | 11.89685 | 6615 ft | 267 kts | 20° |
| 2026-05-07 19:10 | 51.21446 | 11.90152 | 6021 ft | 262 kts | 353° |
| 2026-05-07 19:11 | 51.23098 | 11.89165 | 5647 ft | 251 kts | 323° |
| 2026-05-07 19:11 | 51.24265 | 11.87179 | 5320 ft | 242 kts | 308° |
| 2026-05-07 19:11 | 51.25227 | 11.85037 | 4954 ft | 234 kts | 306° |
| 2026-05-07 19:11 | 51.26154 | 11.82927 | 4491 ft | 230 kts | 308° |
| 2026-05-07 19:12 | 51.27341 | 11.81278 | 3934 ft | 227 kts | 339° |
| 2026-05-07 19:12 | 51.28872 | 11.80954 | 3469 ft | 224 kts | 13° |
| 2026-05-07 19:12 | 51.30304 | 11.81830 | 3137 ft | 218 kts | 26° |
| 2026-05-07 19:12 | 51.31649 | 11.82819 | 3078 ft | 209 kts | 25° |
| 2026-05-07 19:13 | 51.32998 | 11.83796 | 3030 ft | 218 kts | 24° |
| 2026-05-07 19:13 | 51.34347 | 11.84928 | 2992 ft | 220 kts | 35° |
| 2026-05-07 19:13 | 51.35560 | 11.86437 | 2991 ft | 221 kts | 39° |
| 2026-05-07 19:13 | 51.36746 | 11.87987 | 2985 ft | 220 kts | 39° |
| 2026-05-07 19:14 | 51.37930 | 11.89543 | 2987 ft | 221 kts | 39° |
| 2026-05-07 19:14 | 51.39118 | 11.91108 | 2994 ft | 221 kts | 39° |
| 2026-05-07 19:14 | 51.40306 | 11.92677 | 2992 ft | 222 kts | 39° |
| 2026-05-07 19:14 | 51.41409 | 11.94380 | 2968 ft | 219 kts | 57° |
| 2026-05-07 19:15 | 51.41877 | 11.96667 | 2989 ft | 217 kts | 81° |
| 2026-05-07 19:15 | 51.42060 | 11.99087 | 3026 ft | 220 kts | 83° |
| 2026-05-07 19:15 | 51.42187 | 12.01501 | 2971 ft | 212 kts | 84° |
| 2026-05-07 19:15 | 51.42293 | 12.03828 | 2665 ft | 207 kts | 84° |
| 2026-05-07 19:16 | 51.42394 | 12.06028 | 2378 ft | 186 kts | 84° |
| 2026-05-07 19:16 | 51.42484 | 12.07973 | 2146 ft | 170 kts | 84° |
| 2026-05-07 19:16 | 51.42576 | 12.09887 | 1949 ft | 173 kts | 84° |
| 2026-05-07 19:16 | 51.42663 | 12.11763 | 1690 ft | 164 kts | 84° |
| 2026-05-07 19:17 | 51.42745 | 12.13513 | 1472 ft | 153 kts | 84° |
| 2026-05-07 19:17 | 51.42824 | 12.15193 | 1284 ft | 152 kts | 84° |
| 2026-05-07 19:17 | 51.42901 | 12.16894 | 1065 ft | 154 kts | 84° |
| 2026-05-07 19:17 | 51.42976 | 12.18602 | 853 ft | 154 kts | 83° |
| 2026-05-07 19:18 | 51.43062 | 12.20296 | 632 ft | 154 kts | 83° |
| 2026-05-07 19:18 | 51.43143 | 12.22004 | 450 ft | 149 kts | 84° |
| 2026-05-07 19:18 | 51.43213 | 12.23419 | 453 ft | 104 kts | 86° |
| 2026-05-07 19:18 | 51.43249 | 12.24277 | 450 ft | 51 kts | 90° |
| 2026-05-07 19:19 | 51.43200 | 12.24651 | 455 ft | 30 kts | 116° |
| 2026-05-07 19:19 | 51.43116 | 12.24929 | 458 ft | 25 kts | 116° |
| 2026-05-07 19:19 | 51.43079 | 12.25051 | 459 ft | 0 kts | 115° |
| 2026-05-07 19:19 | 51.43078 | 12.25055 | 459 ft | 1 kts | 115° |
| 2026-05-07 19:20 | 51.43073 | 12.25072 | 458 ft | 3 kts | 115° |
| 2026-05-07 19:20 | 51.43056 | 12.25103 | 458 ft | 6 kts | 146° |
| 2026-05-07 19:20 | 51.42998 | 12.25107 | 456 ft | 12 kts | 190° |
| 2026-05-07 19:20 | 51.42898 | 12.25070 | 455 ft | 16 kts | 193° |
| 2026-05-07 19:21 | 51.42789 | 12.25028 | 461 ft | 16 kts | 193° |
| 2026-05-07 19:21 | 51.42668 | 12.24983 | 467 ft | 22 kts | 193° |
| 2026-05-07 19:21 | 51.42512 | 12.24924 | 474 ft | 23 kts | 193° |
| 2026-05-07 19:21 | 51.42357 | 12.24862 | 478 ft | 23 kts | 193° |
| 2026-05-07 19:22 | 51.42201 | 12.24804 | 482 ft | 23 kts | 192° |
| 2026-05-07 19:22 | 51.42045 | 12.24748 | 491 ft | 23 kts | 193° |
| 2026-05-07 19:22 | 51.41893 | 12.24689 | 486 ft | 23 kts | 194° |
| 2026-05-07 19:22 | 51.41740 | 12.24629 | 475 ft | 23 kts | 192° |
| 2026-05-07 19:23 | 51.41650 | 12.24461 | 472 ft | 22 kts | 267° |
| 2026-05-07 19:23 | 51.41639 | 12.24210 | 478 ft | 23 kts | 265° |
| 2026-05-07 19:23 | 51.41627 | 12.23960 | 475 ft | 22 kts | 265° |
| 2026-05-07 19:23 | 51.41616 | 12.23709 | 472 ft | 22 kts | 266° |
| 2026-05-07 19:24 | 51.41604 | 12.23458 | 468 ft | 22 kts | 266° |
| 2026-05-07 19:24 | 51.41603 | 12.23208 | 469 ft | 23 kts | 279° |
| 2026-05-07 19:24 | 51.41643 | 12.22964 | 468 ft | 22 kts | 285° |
| 2026-05-07 19:24 | 51.41684 | 12.22722 | 468 ft | 22 kts | 285° |
| 2026-05-07 19:25 | 51.41725 | 12.22479 | 462 ft | 23 kts | 285° |
| 2026-05-07 19:25 | 51.41767 | 12.22236 | 456 ft | 23 kts | 285° |
| 2026-05-07 19:25 | 51.41808 | 12.22008 | 450 ft | 16 kts | 286° |
| 2026-05-07 19:25 | 51.41833 | 12.21929 | 449 ft | 0 kts | 311° |